sensor_id;sensor_type;location;lat;lon;timestamp;pressure;altitude;pressure_sealevel;temperature
6550;BMP280;15142;48.888;9.134;2022-11-15T00:00:09;97899.13;;;10.35
6550;BMP280;15142;48.888;9.134;2022-11-15T00:02:55;97892.28;;;10.31
6550;BMP280;15142;48.888;9.134;2022-11-15T00:05:43;97887.91;;;10.31
6550;BMP280;15142;48.888;9.134;2022-11-15T00:08:29;97887.72;;;10.28
6550;BMP280;15142;48.888;9.134;2022-11-15T00:11:15;97893.03;;;10.31
6550;BMP280;15142;48.888;9.134;2022-11-15T00:14:00;97888.41;;;10.33
6550;BMP280;15142;48.888;9.134;2022-11-15T00:16:47;97881.72;;;10.37
6550;BMP280;15142;48.888;9.134;2022-11-15T00:19:31;97883.41;;;10.47
6550;BMP280;15142;48.888;9.134;2022-11-15T00:22:18;97879.97;;;10.56
6550;BMP280;15142;48.888;9.134;2022-11-15T00:25:04;97883.75;;;10.58
6550;BMP280;15142;48.888;9.134;2022-11-15T00:27:49;97877.84;;;10.63
6550;BMP280;15142;48.888;9.134;2022-11-15T00:30:35;97877.72;;;10.73
6550;BMP280;15142;48.888;9.134;2022-11-15T00:33:20;97875.31;;;10.81
6550;BMP280;15142;48.888;9.134;2022-11-15T00:36:08;97874.44;;;10.90
6550;BMP280;15142;48.888;9.134;2022-11-15T00:38:55;97868.38;;;11.00
6550;BMP280;15142;48.888;9.134;2022-11-15T00:41:40;97875.69;;;11.06
6550;BMP280;15142;48.888;9.134;2022-11-15T00:44:25;97878.94;;;11.11
6550;BMP280;15142;48.888;9.134;2022-11-15T00:47:11;97866.09;;;11.16
6550;BMP280;15142;48.888;9.134;2022-11-15T00:49:56;97865.31;;;11.16
6550;BMP280;15142;48.888;9.134;2022-11-15T00:52:41;97865.00;;;11.22
6550;BMP280;15142;48.888;9.134;2022-11-15T00:55:27;97860.66;;;11.36
6550;BMP280;15142;48.888;9.134;2022-11-15T00:58:12;97853.78;;;11.37
6550;BMP280;15142;48.888;9.134;2022-11-15T01:01:05;97848.47;;;11.33
6550;BMP280;15142;48.888;9.134;2022-11-15T01:03:50;97860.13;;;11.39
6550;BMP280;15142;48.888;9.134;2022-11-15T01:06:35;97847.13;;;11.36
6550;BMP280;15142;48.888;9.134;2022-11-15T01:09:20;97839.44;;;11.22
6550;BMP280;15142;48.888;9.134;2022-11-15T01:12:07;97836.00;;;11.13
6550;BMP280;15142;48.888;9.134;2022-11-15T01:14:52;97830.13;;;11.13
6550;BMP280;15142;48.888;9.134;2022-11-15T01:17:37;97832.59;;;11.05
6550;BMP280;15142;48.888;9.134;2022-11-15T01:20:22;97824.28;;;10.94
6550;BMP280;15142;48.888;9.134;2022-11-15T01:23:07;97821.34;;;10.87
6550;BMP280;15142;48.888;9.134;2022-11-15T01:25:52;97823.78;;;10.79
6550;BMP280;15142;48.888;9.134;2022-11-15T01:28:44;97820.31;;;10.70
6550;BMP280;15142;48.888;9.134;2022-11-15T01:31:29;97815.69;;;10.54
6550;BMP280;15142;48.888;9.134;2022-11-15T01:34:15;97823.91;;;10.51
6550;BMP280;15142;48.888;9.134;2022-11-15T01:37:00;97809.94;;;10.67
6550;BMP280;15142;48.888;9.134;2022-11-15T01:39:45;97809.34;;;10.70
6550;BMP280;15142;48.888;9.134;2022-11-15T01:42:30;97818.94;;;10.77
6550;BMP280;15142;48.888;9.134;2022-11-15T01:45:16;97812.38;;;10.72
6550;BMP280;15142;48.888;9.134;2022-11-15T01:48:01;97809.75;;;10.77
6550;BMP280;15142;48.888;9.134;2022-11-15T01:50:47;97813.41;;;10.89
6550;BMP280;15142;48.888;9.134;2022-11-15T01:53:34;97820.63;;;11.00
6550;BMP280;15142;48.888;9.134;2022-11-15T01:56:25;97817.91;;;11.10
6550;BMP280;15142;48.888;9.134;2022-11-15T01:59:12;97816.72;;;11.21
6550;BMP280;15142;48.888;9.134;2022-11-15T02:01:59;97814.22;;;11.03
6550;BMP280;15142;48.888;9.134;2022-11-15T02:04:46;97795.56;;;10.71
6550;BMP280;15142;48.888;9.134;2022-11-15T02:07:32;97801.34;;;10.58
6550;BMP280;15142;48.888;9.134;2022-11-15T02:10:21;97804.94;;;10.57
6550;BMP280;15142;48.888;9.134;2022-11-15T02:13:06;97803.28;;;10.66
6550;BMP280;15142;48.888;9.134;2022-11-15T02:15:58;97791.75;;;10.68
6550;BMP280;15142;48.888;9.134;2022-11-15T02:22:33;97787.22;;;10.65
6550;BMP280;15142;48.888;9.134;2022-11-15T02:25:35;97778.03;;;10.64
6550;BMP280;15142;48.888;9.134;2022-11-15T02:28:38;97784.94;;;10.64
6550;BMP280;15142;48.888;9.134;2022-11-15T02:31:33;97778.88;;;10.60
6550;BMP280;15142;48.888;9.134;2022-11-15T02:34:28;97776.25;;;10.65
6550;BMP280;15142;48.888;9.134;2022-11-15T02:37:21;97777.28;;;10.64
6550;BMP280;15142;48.888;9.134;2022-11-15T02:40:17;97768.19;;;10.58
6550;BMP280;15142;48.888;9.134;2022-11-15T02:43:09;97764.13;;;10.57
6550;BMP280;15142;48.888;9.134;2022-11-15T02:46:18;97762.59;;;10.56
6550;BMP280;15142;48.888;9.134;2022-11-15T02:49:06;97766.69;;;10.57
6550;BMP280;15142;48.888;9.134;2022-11-15T02:51:52;97758.41;;;10.65
6550;BMP280;15142;48.888;9.134;2022-11-15T02:54:38;97757.41;;;10.61
6550;BMP280;15142;48.888;9.134;2022-11-15T02:57:29;97757.91;;;10.63
6550;BMP280;15142;48.888;9.134;2022-11-15T03:00:18;97757.75;;;10.73
6550;BMP280;15142;48.888;9.134;2022-11-15T03:03:16;97742.88;;;10.61
6550;BMP280;15142;48.888;9.134;2022-11-15T03:06:14;97741.78;;;10.49
6550;BMP280;15142;48.888;9.134;2022-11-15T03:09:10;97742.66;;;10.40
6550;BMP280;15142;48.888;9.134;2022-11-15T03:12:02;97740.00;;;10.31
6550;BMP280;15142;48.888;9.134;2022-11-15T03:14:54;97739.34;;;10.21
6550;BMP280;15142;48.888;9.134;2022-11-15T03:17:46;97742.06;;;10.11
6550;BMP280;15142;48.888;9.134;2022-11-15T03:20:34;97734.88;;;9.95
6550;BMP280;15142;48.888;9.134;2022-11-15T03:23:23;97727.59;;;9.84
6550;BMP280;15142;48.888;9.134;2022-11-15T03:26:11;97730.53;;;9.72
6550;BMP280;15142;48.888;9.134;2022-11-15T03:29:00;97724.56;;;9.58
6550;BMP280;15142;48.888;9.134;2022-11-15T03:31:48;97727.91;;;9.59
6550;BMP280;15142;48.888;9.134;2022-11-15T03:34:39;97732.06;;;9.50
6550;BMP280;15142;48.888;9.134;2022-11-15T03:37:30;97737.50;;;9.44
6550;BMP280;15142;48.888;9.134;2022-11-15T03:40:24;97732.41;;;9.44
6550;BMP280;15142;48.888;9.134;2022-11-15T03:43:16;97726.31;;;9.40
6550;BMP280;15142;48.888;9.134;2022-11-15T03:46:07;97722.72;;;9.41
6550;BMP280;15142;48.888;9.134;2022-11-15T03:48:59;97721.75;;;9.37
6550;BMP280;15142;48.888;9.134;2022-11-15T03:51:45;97722.34;;;9.29
6550;BMP280;15142;48.888;9.134;2022-11-15T03:54:31;97713.06;;;9.15
6550;BMP280;15142;48.888;9.134;2022-11-15T03:57:18;97715.69;;;9.05
6550;BMP280;15142;48.888;9.134;2022-11-15T04:00:04;97711.16;;;9.02
6550;BMP280;15142;48.888;9.134;2022-11-15T04:02:49;97713.13;;;9.05
6550;BMP280;15142;48.888;9.134;2022-11-15T04:05:35;97713.13;;;9.05
6550;BMP280;15142;48.888;9.134;2022-11-15T04:08:20;97718.50;;;9.03
6550;BMP280;15142;48.888;9.134;2022-11-15T04:11:06;97726.72;;;8.95
6550;BMP280;15142;48.888;9.134;2022-11-15T04:13:53;97725.19;;;8.94
6550;BMP280;15142;48.888;9.134;2022-11-15T04:16:38;97724.72;;;8.93
6550;BMP280;15142;48.888;9.134;2022-11-15T04:19:24;97727.25;;;8.93
6550;BMP280;15142;48.888;9.134;2022-11-15T04:22:27;97719.09;;;8.95
6550;BMP280;15142;48.888;9.134;2022-11-15T04:25:30;97717.03;;;8.97
6550;BMP280;15142;48.888;9.134;2022-11-15T04:28:15;97710.41;;;8.96
6550;BMP280;15142;48.888;9.134;2022-11-15T04:31:02;97705.88;;;8.94
6550;BMP280;15142;48.888;9.134;2022-11-15T04:33:47;97708.91;;;8.95
6550;BMP280;15142;48.888;9.134;2022-11-15T04:36:32;97710.66;;;8.95
6550;BMP280;15142;48.888;9.134;2022-11-15T04:39:35;97699.72;;;8.99
6550;BMP280;15142;48.888;9.134;2022-11-15T04:42:21;97703.28;;;8.98
6550;BMP280;15142;48.888;9.134;2022-11-15T04:45:07;97695.69;;;8.94
6550;BMP280;15142;48.888;9.134;2022-11-15T04:47:54;97688.56;;;8.95
6550;BMP280;15142;48.888;9.134;2022-11-15T04:50:39;97692.84;;;8.95
6550;BMP280;15142;48.888;9.134;2022-11-15T04:53:24;97693.66;;;8.95
6550;BMP280;15142;48.888;9.134;2022-11-15T04:56:09;97695.41;;;8.95
6550;BMP280;15142;48.888;9.134;2022-11-15T04:58:54;97687.00;;;8.94
6550;BMP280;15142;48.888;9.134;2022-11-15T05:01:40;97691.88;;;8.91
6550;BMP280;15142;48.888;9.134;2022-11-15T05:04:26;97685.06;;;8.87
6550;BMP280;15142;48.888;9.134;2022-11-15T05:07:11;97684.84;;;8.83
6550;BMP280;15142;48.888;9.134;2022-11-15T05:09:56;97676.00;;;8.76
6550;BMP280;15142;48.888;9.134;2022-11-15T05:12:41;97671.94;;;8.75
6550;BMP280;15142;48.888;9.134;2022-11-15T05:15:27;97671.97;;;8.70
6550;BMP280;15142;48.888;9.134;2022-11-15T05:18:12;97661.31;;;8.68
6550;BMP280;15142;48.888;9.134;2022-11-15T05:21:04;97672.47;;;8.67
6550;BMP280;15142;48.888;9.134;2022-11-15T05:23:49;97670.91;;;8.76
6550;BMP280;15142;48.888;9.134;2022-11-15T05:26:35;97669.56;;;8.83
6550;BMP280;15142;48.888;9.134;2022-11-15T05:29:20;97667.22;;;8.92
6550;BMP280;15142;48.888;9.134;2022-11-15T05:32:08;97668.91;;;9.01
6550;BMP280;15142;48.888;9.134;2022-11-15T05:34:54;97672.88;;;9.12
6550;BMP280;15142;48.888;9.134;2022-11-15T05:37:41;97651.19;;;9.14
6550;BMP280;15142;48.888;9.134;2022-11-15T05:40:27;97661.63;;;9.18
6550;BMP280;15142;48.888;9.134;2022-11-15T05:43:14;97655.22;;;9.20
6550;BMP280;15142;48.888;9.134;2022-11-15T05:46:00;97644.97;;;9.25
6550;BMP280;15142;48.888;9.134;2022-11-15T05:48:49;97650.50;;;9.32
6550;BMP280;15142;48.888;9.134;2022-11-15T05:51:36;97643.84;;;9.36
6550;BMP280;15142;48.888;9.134;2022-11-15T05:54:24;97647.81;;;9.47
6550;BMP280;15142;48.888;9.134;2022-11-15T05:57:10;97642.41;;;9.48
6550;BMP280;15142;48.888;9.134;2022-11-15T05:59:55;97656.88;;;9.53
6550;BMP280;15142;48.888;9.134;2022-11-15T06:02:41;97644.59;;;9.59
6550;BMP280;15142;48.888;9.134;2022-11-15T06:05:26;97655.19;;;9.66
6550;BMP280;15142;48.888;9.134;2022-11-15T06:08:12;97659.31;;;9.62
6550;BMP280;15142;48.888;9.134;2022-11-15T06:11:04;97658.75;;;9.47
6550;BMP280;15142;48.888;9.134;2022-11-15T06:13:49;97654.03;;;9.36
6550;BMP280;15142;48.888;9.134;2022-11-15T06:16:35;97662.00;;;9.29
6550;BMP280;15142;48.888;9.134;2022-11-15T06:19:20;97664.09;;;9.23
6550;BMP280;15142;48.888;9.134;2022-11-15T06:22:05;97660.38;;;9.15
6550;BMP280;15142;48.888;9.134;2022-11-15T06:24:50;97669.09;;;9.09
6550;BMP280;15142;48.888;9.134;2022-11-15T06:27:37;97666.06;;;9.07
6550;BMP280;15142;48.888;9.134;2022-11-15T06:30:23;97660.88;;;9.12
6550;BMP280;15142;48.888;9.134;2022-11-15T06:33:09;97663.44;;;9.12
6550;BMP280;15142;48.888;9.134;2022-11-15T06:35:54;97655.53;;;9.14
6550;BMP280;15142;48.888;9.134;2022-11-15T06:38:39;97655.00;;;9.17
6550;BMP280;15142;48.888;9.134;2022-11-15T06:41:25;97651.69;;;9.16
6550;BMP280;15142;48.888;9.134;2022-11-15T06:44:11;97653.72;;;9.19
6550;BMP280;15142;48.888;9.134;2022-11-15T06:46:57;97664.88;;;9.23
6550;BMP280;15142;48.888;9.134;2022-11-15T06:49:42;97668.88;;;9.29
6550;BMP280;15142;48.888;9.134;2022-11-15T06:52:27;97674.88;;;9.38
6550;BMP280;15142;48.888;9.134;2022-11-15T06:55:16;97679.94;;;9.43
6550;BMP280;15142;48.888;9.134;2022-11-15T06:58:01;97682.16;;;9.49
6550;BMP280;15142;48.888;9.134;2022-11-15T07:00:48;97678.81;;;9.54
6550;BMP280;15142;48.888;9.134;2022-11-15T07:03:34;97681.25;;;9.58
6550;BMP280;15142;48.888;9.134;2022-11-15T07:06:20;97683.56;;;9.60
6550;BMP280;15142;48.888;9.134;2022-11-15T07:09:05;97683.28;;;9.61
6550;BMP280;15142;48.888;9.134;2022-11-15T07:11:51;97683.22;;;9.66
6550;BMP280;15142;48.888;9.134;2022-11-15T07:14:36;97678.59;;;9.68
6550;BMP280;15142;48.888;9.134;2022-11-15T07:17:22;97695.34;;;9.74
6550;BMP280;15142;48.888;9.134;2022-11-15T07:20:08;97691.72;;;9.80
6550;BMP280;15142;48.888;9.134;2022-11-15T07:23:00;97688.78;;;9.91
6550;BMP280;15142;48.888;9.134;2022-11-15T07:25:46;97685.00;;;10.07
6550;BMP280;15142;48.888;9.134;2022-11-15T07:28:31;97692.78;;;10.16
6550;BMP280;15142;48.888;9.134;2022-11-15T07:31:16;97691.09;;;10.24
6550;BMP280;15142;48.888;9.134;2022-11-15T07:34:03;97684.97;;;10.44
6550;BMP280;15142;48.888;9.134;2022-11-15T07:36:48;97678.66;;;10.54
6550;BMP280;15142;48.888;9.134;2022-11-15T07:39:33;97677.75;;;10.64
6550;BMP280;15142;48.888;9.134;2022-11-15T07:42:19;97668.97;;;10.70
6550;BMP280;15142;48.888;9.134;2022-11-15T07:45:23;97668.56;;;10.81
6550;BMP280;15142;48.888;9.134;2022-11-15T07:48:10;97669.97;;;10.87
6550;BMP280;15142;48.888;9.134;2022-11-15T07:50:56;97667.19;;;10.83
6550;BMP280;15142;48.888;9.134;2022-11-15T07:53:42;97667.94;;;10.84
6550;BMP280;15142;48.888;9.134;2022-11-15T07:56:28;97676.31;;;10.89
6550;BMP280;15142;48.888;9.134;2022-11-15T07:59:13;97666.47;;;10.96
6550;BMP280;15142;48.888;9.134;2022-11-15T08:01:58;97666.09;;;10.89
6550;BMP280;15142;48.888;9.134;2022-11-15T08:04:44;97665.63;;;10.87
6550;BMP280;15142;48.888;9.134;2022-11-15T08:07:31;97660.25;;;10.89
6550;BMP280;15142;48.888;9.134;2022-11-15T08:10:16;97657.59;;;10.94
6550;BMP280;15142;48.888;9.134;2022-11-15T08:13:05;97661.38;;;10.96
6550;BMP280;15142;48.888;9.134;2022-11-15T08:15:51;97657.78;;;10.97
6550;BMP280;15142;48.888;9.134;2022-11-15T08:18:36;97658.34;;;10.94
6550;BMP280;15142;48.888;9.134;2022-11-15T08:21:22;97656.66;;;11.03
6550;BMP280;15142;48.888;9.134;2022-11-15T08:24:09;97657.03;;;11.10
6550;BMP280;15142;48.888;9.134;2022-11-15T08:26:55;97648.44;;;11.19
6550;BMP280;15142;48.888;9.134;2022-11-15T08:29:41;97655.63;;;11.31
6550;BMP280;15142;48.888;9.134;2022-11-15T08:32:27;97636.94;;;11.43
6550;BMP280;15142;48.888;9.134;2022-11-15T08:35:12;97647.63;;;11.59
6550;BMP280;15142;48.888;9.134;2022-11-15T08:37:57;97644.13;;;11.68
6550;BMP280;15142;48.888;9.134;2022-11-15T08:40:44;97632.50;;;11.84
6550;BMP280;15142;48.888;9.134;2022-11-15T08:43:30;97645.91;;;12.02
6550;BMP280;15142;48.888;9.134;2022-11-15T08:46:15;97635.84;;;12.27
6550;BMP280;15142;48.888;9.134;2022-11-15T08:49:02;97629.84;;;12.54
6550;BMP280;15142;48.888;9.134;2022-11-15T08:51:47;97630.63;;;12.62
6550;BMP280;15142;48.888;9.134;2022-11-15T08:54:32;97632.09;;;12.63
6550;BMP280;15142;48.888;9.134;2022-11-15T08:57:19;97627.44;;;12.95
6550;BMP280;15142;48.888;9.134;2022-11-15T09:00:05;97626.56;;;13.08
6550;BMP280;15142;48.888;9.134;2022-11-15T09:02:51;97617.69;;;13.14
6550;BMP280;15142;48.888;9.134;2022-11-15T09:05:36;97615.25;;;13.09
6550;BMP280;15142;48.888;9.134;2022-11-15T09:08:21;97622.47;;;12.99
6550;BMP280;15142;48.888;9.134;2022-11-15T09:11:09;97614.91;;;12.86
6550;BMP280;15142;48.888;9.134;2022-11-15T09:13:56;97614.59;;;12.87
6550;BMP280;15142;48.888;9.134;2022-11-15T09:16:41;97624.59;;;13.05
6550;BMP280;15142;48.888;9.134;2022-11-15T09:19:27;97616.44;;;13.03
6550;BMP280;15142;48.888;9.134;2022-11-15T09:22:12;97613.00;;;12.99
6550;BMP280;15142;48.888;9.134;2022-11-15T09:24:57;97614.03;;;12.98
6550;BMP280;15142;48.888;9.134;2022-11-15T09:27:43;97603.03;;;12.98
6550;BMP280;15142;48.888;9.134;2022-11-15T09:30:30;97613.56;;;12.88
6550;BMP280;15142;48.888;9.134;2022-11-15T09:33:15;97608.59;;;12.91
6550;BMP280;15142;48.888;9.134;2022-11-15T09:36:01;97618.41;;;12.98
6550;BMP280;15142;48.888;9.134;2022-11-15T09:38:47;97610.31;;;13.13
6550;BMP280;15142;48.888;9.134;2022-11-15T09:41:47;97612.03;;;13.25
6550;BMP280;15142;48.888;9.134;2022-11-15T09:44:42;97609.16;;;13.35
6550;BMP280;15142;48.888;9.134;2022-11-15T09:50:51;97604.63;;;13.99
6550;BMP280;15142;48.888;9.134;2022-11-15T09:53:27;97585.63;;;13.83
6550;BMP280;15142;48.888;9.134;2022-11-15T09:55:58;97579.72;;;13.74
6550;BMP280;15142;48.888;9.134;2022-11-15T09:58:33;97577.94;;;13.58
6550;BMP280;15142;48.888;9.134;2022-11-15T10:01:06;97580.22;;;13.60
6550;BMP280;15142;48.888;9.134;2022-11-15T10:03:34;97590.75;;;13.67
6550;BMP280;15142;48.888;9.134;2022-11-15T10:06:04;97583.06;;;13.67
6550;BMP280;15142;48.888;9.134;2022-11-15T10:08:51;97568.41;;;13.75
6550;BMP280;15142;48.888;9.134;2022-11-15T10:11:22;97572.03;;;13.74
6550;BMP280;15142;48.888;9.134;2022-11-15T10:13:53;97565.22;;;13.87
6550;BMP280;15142;48.888;9.134;2022-11-15T10:16:41;97577.47;;;13.81
6550;BMP280;15142;48.888;9.134;2022-11-15T10:19:16;97571.88;;;13.88
6550;BMP280;15142;48.888;9.134;2022-11-15T10:21:56;97567.97;;;13.82
6550;BMP280;15142;48.888;9.134;2022-11-15T10:24:27;97563.56;;;13.82
6550;BMP280;15142;48.888;9.134;2022-11-15T10:26:55;97550.47;;;13.84
6550;BMP280;15142;48.888;9.134;2022-11-15T10:29:23;97558.44;;;13.74
6550;BMP280;15142;48.888;9.134;2022-11-15T10:31:50;97554.84;;;13.67
6550;BMP280;15142;48.888;9.134;2022-11-15T10:34:19;97555.03;;;13.53
6550;BMP280;15142;48.888;9.134;2022-11-15T10:36:55;97548.69;;;13.59
6550;BMP280;15142;48.888;9.134;2022-11-15T10:39:23;97543.09;;;13.66
6550;BMP280;15142;48.888;9.134;2022-11-15T10:41:50;97539.47;;;13.67
6550;BMP280;15142;48.888;9.134;2022-11-15T10:44:23;97534.81;;;13.60
6550;BMP280;15142;48.888;9.134;2022-11-15T10:47:22;97534.19;;;13.55
6550;BMP280;15142;48.888;9.134;2022-11-15T10:49:58;97535.25;;;13.54
6550;BMP280;15142;48.888;9.134;2022-11-15T10:52:27;97524.56;;;13.44
6550;BMP280;15142;48.888;9.134;2022-11-15T10:54:58;97514.91;;;13.49
6550;BMP280;15142;48.888;9.134;2022-11-15T10:57:27;97517.78;;;13.47
6550;BMP280;15142;48.888;9.134;2022-11-15T10:59:56;97522.44;;;13.45
6550;BMP280;15142;48.888;9.134;2022-11-15T11:02:28;97518.81;;;13.55
6550;BMP280;15142;48.888;9.134;2022-11-15T11:04:56;97520.81;;;13.49
6550;BMP280;15142;48.888;9.134;2022-11-15T11:07:25;97507.66;;;13.43
6550;BMP280;15142;48.888;9.134;2022-11-15T11:10:04;97514.78;;;13.37
6550;BMP280;15142;48.888;9.134;2022-11-15T11:12:33;97510.56;;;13.41
6550;BMP280;15142;48.888;9.134;2022-11-15T11:15:05;97506.47;;;13.40
6550;BMP280;15142;48.888;9.134;2022-11-15T11:17:48;97508.13;;;13.36
6550;BMP280;15142;48.888;9.134;2022-11-15T11:20:21;97504.81;;;13.27
6550;BMP280;15142;48.888;9.134;2022-11-15T11:23:02;97519.59;;;13.30
6550;BMP280;15142;48.888;9.134;2022-11-15T11:25:34;97509.66;;;13.37
6550;BMP280;15142;48.888;9.134;2022-11-15T11:28:18;97499.06;;;13.47
6550;BMP280;15142;48.888;9.134;2022-11-15T11:30:57;97504.19;;;13.47
6550;BMP280;15142;48.888;9.134;2022-11-15T11:33:31;97498.03;;;13.48
6550;BMP280;15142;48.888;9.134;2022-11-15T11:36:05;97482.00;;;13.51
6550;BMP280;15142;48.888;9.134;2022-11-15T11:38:45;97494.72;;;13.47
6550;BMP280;15142;48.888;9.134;2022-11-15T11:41:23;97485.63;;;13.58
6550;BMP280;15142;48.888;9.134;2022-11-15T11:44:06;97485.00;;;13.70
6550;BMP280;15142;48.888;9.134;2022-11-15T11:46:47;97479.38;;;13.84
6550;BMP280;15142;48.888;9.134;2022-11-15T11:49:19;97469.25;;;13.88
6550;BMP280;15142;48.888;9.134;2022-11-15T11:51:51;97469.91;;;13.85
6550;BMP280;15142;48.888;9.134;2022-11-15T11:54:22;97464.59;;;13.81
6550;BMP280;15142;48.888;9.134;2022-11-15T11:56:52;97458.88;;;13.84
6550;BMP280;15142;48.888;9.134;2022-11-15T11:59:29;97460.59;;;14.01
6550;BMP280;15142;48.888;9.134;2022-11-15T12:02:01;97463.16;;;14.09
6550;BMP280;15142;48.888;9.134;2022-11-15T12:04:30;97454.56;;;14.05
6550;BMP280;15142;48.888;9.134;2022-11-15T12:07:02;97445.19;;;14.09
6550;BMP280;15142;48.888;9.134;2022-11-15T12:09:35;97443.88;;;14.31
6550;BMP280;15142;48.888;9.134;2022-11-15T12:12:09;97439.88;;;14.42
6550;BMP280;15142;48.888;9.134;2022-11-15T12:14:42;97431.50;;;14.54
6550;BMP280;15142;48.888;9.134;2022-11-15T12:17:10;97436.75;;;14.57
6550;BMP280;15142;48.888;9.134;2022-11-15T12:19:38;97430.75;;;14.53
6550;BMP280;15142;48.888;9.134;2022-11-15T12:22:12;97432.59;;;14.44
6550;BMP280;15142;48.888;9.134;2022-11-15T12:24:43;97428.69;;;14.38
6550;BMP280;15142;48.888;9.134;2022-11-15T12:27:17;97427.72;;;14.31
6550;BMP280;15142;48.888;9.134;2022-11-15T12:29:48;97425.94;;;14.23
6550;BMP280;15142;48.888;9.134;2022-11-15T12:32:25;97421.00;;;14.10
6550;BMP280;15142;48.888;9.134;2022-11-15T12:34:53;97418.63;;;14.05
6550;BMP280;15142;48.888;9.134;2022-11-15T12:37:46;97418.63;;;14.05
6550;BMP280;15142;48.888;9.134;2022-11-15T12:40:30;97411.00;;;13.88
6550;BMP280;15142;48.888;9.134;2022-11-15T12:46:02;97410.63;;;13.70
6550;BMP280;15142;48.888;9.134;2022-11-15T12:48:57;97401.41;;;13.77
6550;BMP280;15142;48.888;9.134;2022-11-15T12:54:50;97397.50;;;13.71
6550;BMP280;15142;48.888;9.134;2022-11-15T12:57:35;97394.63;;;13.73
6550;BMP280;15142;48.888;9.134;2022-11-15T13:03:21;97390.38;;;13.76
6550;BMP280;15142;48.888;9.134;2022-11-15T13:05:57;97384.66;;;13.79
6550;BMP280;15142;48.888;9.134;2022-11-15T13:08:43;97378.16;;;13.82
6550;BMP280;15142;48.888;9.134;2022-11-15T13:11:50;97378.78;;;13.79
6550;BMP280;15142;48.888;9.134;2022-11-15T13:14:40;97372.72;;;13.83
6550;BMP280;15142;48.888;9.134;2022-11-15T13:17:26;97374.06;;;13.89
6550;BMP280;15142;48.888;9.134;2022-11-15T13:19:58;97371.78;;;13.88
6550;BMP280;15142;48.888;9.134;2022-11-15T13:22:26;97367.41;;;13.88
6550;BMP280;15142;48.888;9.134;2022-11-15T13:25:19;97360.00;;;13.87
6550;BMP280;15142;48.888;9.134;2022-11-15T13:27:48;97364.38;;;13.86
6550;BMP280;15142;48.888;9.134;2022-11-15T13:30:20;97350.22;;;13.80
6550;BMP280;15142;48.888;9.134;2022-11-15T13:32:48;97354.97;;;13.70
6550;BMP280;15142;48.888;9.134;2022-11-15T13:35:22;97351.16;;;13.76
6550;BMP280;15142;48.888;9.134;2022-11-15T13:37:49;97346.03;;;13.76
6550;BMP280;15142;48.888;9.134;2022-11-15T13:40:24;97345.75;;;13.77
6550;BMP280;15142;48.888;9.134;2022-11-15T13:42:53;97336.44;;;13.73
6550;BMP280;15142;48.888;9.134;2022-11-15T13:45:20;97331.72;;;13.75
6550;BMP280;15142;48.888;9.134;2022-11-15T13:47:55;97332.81;;;13.66
6550;BMP280;15142;48.888;9.134;2022-11-15T13:50:26;97322.56;;;13.66
6550;BMP280;15142;48.888;9.134;2022-11-15T13:52:57;97321.03;;;13.65
6550;BMP280;15142;48.888;9.134;2022-11-15T13:55:24;97323.50;;;13.61
6550;BMP280;15142;48.888;9.134;2022-11-15T13:57:54;97323.50;;;13.53
6550;BMP280;15142;48.888;9.134;2022-11-15T14:00:27;97313.09;;;13.58
6550;BMP280;15142;48.888;9.134;2022-11-15T14:02:56;97308.13;;;13.53
6550;BMP280;15142;48.888;9.134;2022-11-15T14:05:25;97306.34;;;13.53
6550;BMP280;15142;48.888;9.134;2022-11-15T14:07:53;97299.97;;;13.51
6550;BMP280;15142;48.888;9.134;2022-11-15T14:10:28;97303.66;;;13.50
6550;BMP280;15142;48.888;9.134;2022-11-15T14:12:55;97300.81;;;13.43
6550;BMP280;15142;48.888;9.134;2022-11-15T14:15:29;97299.59;;;13.41
6550;BMP280;15142;48.888;9.134;2022-11-15T14:17:56;97292.53;;;13.38
6550;BMP280;15142;48.888;9.134;2022-11-15T14:20:31;97286.97;;;13.36
6550;BMP280;15142;48.888;9.134;2022-11-15T14:22:59;97287.25;;;13.34
6550;BMP280;15142;48.888;9.134;2022-11-15T14:25:28;97280.94;;;13.32
6550;BMP280;15142;48.888;9.134;2022-11-15T14:28:28;97278.97;;;13.29
6550;BMP280;15142;48.888;9.134;2022-11-15T14:30:57;97272.84;;;13.21
6550;BMP280;15142;48.888;9.134;2022-11-15T14:33:27;97262.16;;;13.19
6550;BMP280;15142;48.888;9.134;2022-11-15T14:35:57;97260.81;;;13.14
6550;BMP280;15142;48.888;9.134;2022-11-15T14:38:25;97261.72;;;13.09
6550;BMP280;15142;48.888;9.134;2022-11-15T14:40:52;97253.59;;;13.07
6550;BMP280;15142;48.888;9.134;2022-11-15T14:43:21;97255.56;;;13.02
6550;BMP280;15142;48.888;9.134;2022-11-15T14:45:48;97249.69;;;13.01
6550;BMP280;15142;48.888;9.134;2022-11-15T14:48:15;97242.34;;;13.00
6550;BMP280;15142;48.888;9.134;2022-11-15T14:50:42;97243.38;;;12.99
6550;BMP280;15142;48.888;9.134;2022-11-15T14:53:14;97247.75;;;12.98
6550;BMP280;15142;48.888;9.134;2022-11-15T14:55:41;97239.31;;;12.98
6550;BMP280;15142;48.888;9.134;2022-11-15T14:58:08;97234.94;;;12.98
6550;BMP280;15142;48.888;9.134;2022-11-15T15:00:37;97236.75;;;12.98
6550;BMP280;15142;48.888;9.134;2022-11-15T15:03:04;97234.19;;;12.98
6550;BMP280;15142;48.888;9.134;2022-11-15T15:05:34;97230.75;;;12.94
6550;BMP280;15142;48.888;9.134;2022-11-15T15:08:01;97232.84;;;12.92
6550;BMP280;15142;48.888;9.134;2022-11-15T15:10:33;97221.41;;;12.89
6550;BMP280;15142;48.888;9.134;2022-11-15T15:13:01;97224.09;;;12.93
6550;BMP280;15142;48.888;9.134;2022-11-15T15:15:32;97220.81;;;12.92
6550;BMP280;15142;48.888;9.134;2022-11-15T15:17:59;97210.41;;;12.89
6550;BMP280;15142;48.888;9.134;2022-11-15T15:20:26;97208.47;;;12.86
6550;BMP280;15142;48.888;9.134;2022-11-15T15:22:54;97202.28;;;12.87
6550;BMP280;15142;48.888;9.134;2022-11-15T15:25:23;97193.69;;;12.83
6550;BMP280;15142;48.888;9.134;2022-11-15T15:27:53;97189.63;;;12.82
6550;BMP280;15142;48.888;9.134;2022-11-15T15:30:21;97189.63;;;12.82
6550;BMP280;15142;48.888;9.134;2022-11-15T15:32:48;97188.16;;;12.81
6550;BMP280;15142;48.888;9.134;2022-11-15T15:35:16;97180.63;;;12.76
6550;BMP280;15142;48.888;9.134;2022-11-15T15:37:43;97183.78;;;12.73
6550;BMP280;15142;48.888;9.134;2022-11-15T15:40:14;97186.97;;;12.70
6550;BMP280;15142;48.888;9.134;2022-11-15T15:42:41;97177.34;;;12.67
6550;BMP280;15142;48.888;9.134;2022-11-15T15:45:10;97182.47;;;12.67
6550;BMP280;15142;48.888;9.134;2022-11-15T15:47:37;97179.44;;;12.65
6550;BMP280;15142;48.888;9.134;2022-11-15T15:50:14;97175.09;;;12.66
6550;BMP280;15142;48.888;9.134;2022-11-15T15:52:43;97177.94;;;12.64
6550;BMP280;15142;48.888;9.134;2022-11-15T15:57:37;97166.66;;;12.65
6550;BMP280;15142;48.888;9.134;2022-11-15T16:00:04;97161.53;;;12.65
6550;BMP280;15142;48.888;9.134;2022-11-15T16:02:39;97161.06;;;12.63
6550;BMP280;15142;48.888;9.134;2022-11-15T16:05:06;97155.94;;;12.63